sensor_id;sensor_type;location;lat;lon;timestamp;pressure;altitude;pressure_sealevel;temperature;humidity
72096;BME280;59968;51.084;16.748;2023-03-25T00:00:49;99220.44;;;10.89;66.77
72096;BME280;59968;51.084;16.748;2023-03-25T00:03:21;99216.95;;;10.91;66.69
72096;BME280;59968;51.084;16.748;2023-03-25T00:05:50;99215.86;;;10.93;66.62
72096;BME280;59968;51.084;16.748;2023-03-25T00:08:19;99215.63;;;10.95;66.50
72096;BME280;59968;51.084;16.748;2023-03-25T00:10:57;99206.59;;;10.99;66.55
72096;BME280;59968;51.084;16.748;2023-03-25T00:13:26;99200.63;;;11.05;66.31
72096;BME280;59968;51.084;16.748;2023-03-25T00:15:55;99201.41;;;11.09;66.16
72096;BME280;59968;51.084;16.748;2023-03-25T00:18:27;99198.82;;;11.13;66.08
72096;BME280;59968;51.084;16.748;2023-03-25T00:20:57;99196.71;;;11.16;66.01
72096;BME280;59968;51.084;16.748;2023-03-25T00:23:26;99190.15;;;11.17;65.97
72096;BME280;59968;51.084;16.748;2023-03-25T00:25:56;99190.52;;;11.19;65.91
72096;BME280;59968;51.084;16.748;2023-03-25T00:28:33;99185.14;;;11.18;65.83
72096;BME280;59968;51.084;16.748;2023-03-25T00:31:10;99181.05;;;11.14;65.75
72096;BME280;59968;51.084;16.748;2023-03-25T00:33:40;99191.17;;;11.14;65.82
72096;BME280;59968;51.084;16.748;2023-03-25T00:36:12;99188.85;;;11.09;65.89
72096;BME280;59968;51.084;16.748;2023-03-25T00:38:42;99185.58;;;11.05;66.03
72096;BME280;59968;51.084;16.748;2023-03-25T00:41:21;99187.14;;;11.01;66.01
72096;BME280;59968;51.084;16.748;2023-03-25T00:43:54;99186.77;;;10.96;66.08
72096;BME280;59968;51.084;16.748;2023-03-25T00:46:25;99180.52;;;10.92;66.18
72096;BME280;59968;51.084;16.748;2023-03-25T00:48:56;99181.95;;;10.92;66.23
72096;BME280;59968;51.084;16.748;2023-03-25T00:51:26;99181.66;;;10.92;66.12
72096;BME280;59968;51.084;16.748;2023-03-25T00:53:57;99178.77;;;10.95;66.09
72096;BME280;59968;51.084;16.748;2023-03-25T00:56:29;99177.30;;;10.97;65.93
72096;BME280;59968;51.084;16.748;2023-03-25T00:58:59;99174.32;;;10.99;65.81
72096;BME280;59968;51.084;16.748;2023-03-25T01:01:28;99174.23;;;11.03;65.61
72096;BME280;59968;51.084;16.748;2023-03-25T01:03:58;99174.61;;;11.08;65.43
72096;BME280;59968;51.084;16.748;2023-03-25T01:06:32;99172.98;;;11.10;65.37
72096;BME280;59968;51.084;16.748;2023-03-25T01:09:05;99175.88;;;11.11;65.30
72096;BME280;59968;51.084;16.748;2023-03-25T01:11:34;99172.67;;;11.13;65.28
72096;BME280;59968;51.084;16.748;2023-03-25T01:14:08;99170.27;;;11.13;65.19
72096;BME280;59968;51.084;16.748;2023-03-25T01:16:39;99166.17;;;11.15;65.19
72096;BME280;59968;51.084;16.748;2023-03-25T01:19:09;99166.70;;;11.15;65.09
72096;BME280;59968;51.084;16.748;2023-03-25T01:21:38;99167.20;;;11.16;64.99
72096;BME280;59968;51.084;16.748;2023-03-25T01:24:11;99165.08;;;11.16;64.91
72096;BME280;59968;51.084;16.748;2023-03-25T01:26:40;99161.13;;;11.16;64.84
72096;BME280;59968;51.084;16.748;2023-03-25T01:29:12;99159.59;;;11.16;64.82
72096;BME280;59968;51.084;16.748;2023-03-25T01:31:41;99157.35;;;11.17;64.68
72096;BME280;59968;51.084;16.748;2023-03-25T01:34:11;99159.53;;;11.16;64.59
72096;BME280;59968;51.084;16.748;2023-03-25T01:36:40;99157.52;;;11.15;64.45
72096;BME280;59968;51.084;16.748;2023-03-25T01:39:16;99153.75;;;11.16;64.41
72096;BME280;59968;51.084;16.748;2023-03-25T01:41:48;99147.73;;;11.17;64.38
72096;BME280;59968;51.084;16.748;2023-03-25T01:46:48;99136.93;;;11.16;64.28
72096;BME280;59968;51.084;16.748;2023-03-25T01:49:24;99133.35;;;11.16;64.18
72096;BME280;59968;51.084;16.748;2023-03-25T01:52:08;99133.55;;;11.16;64.13
72096;BME280;59968;51.084;16.748;2023-03-25T01:54:39;99124.81;;;11.15;64.07
72096;BME280;59968;51.084;16.748;2023-03-25T01:57:12;99122.23;;;11.14;64.15
72096;BME280;59968;51.084;16.748;2023-03-25T01:59:46;99124.14;;;11.09;64.21
72096;BME280;59968;51.084;16.748;2023-03-25T02:02:15;99121.56;;;11.07;64.14
72096;BME280;59968;51.084;16.748;2023-03-25T02:04:56;99122.70;;;11.05;64.28
72096;BME280;59968;51.084;16.748;2023-03-25T02:07:33;99121.80;;;11.04;64.35
72096;BME280;59968;51.084;16.748;2023-03-25T02:10:05;99124.81;;;11.03;64.38
72096;BME280;59968;51.084;16.748;2023-03-25T02:12:35;99122.88;;;10.98;64.46
72096;BME280;59968;51.084;16.748;2023-03-25T02:15:06;99120.45;;;10.92;64.59
72096;BME280;59968;51.084;16.748;2023-03-25T02:21:09;99124.11;;;10.77;64.81
72096;BME280;59968;51.084;16.748;2023-03-25T02:27:52;99116.83;;;10.62;65.10
72096;BME280;59968;51.084;16.748;2023-03-25T02:36:17;99107.52;;;10.45;65.45
72096;BME280;59968;51.084;16.748;2023-03-25T02:47:37;99107.98;;;10.14;66.15
72096;BME280;59968;51.084;16.748;2023-03-25T02:50:13;99105.52;;;10.10;66.31
72096;BME280;59968;51.084;16.748;2023-03-25T02:52:48;99109.04;;;10.06;66.48
72096;BME280;59968;51.084;16.748;2023-03-25T02:55:20;99108.20;;;9.98;66.57
72096;BME280;59968;51.084;16.748;2023-03-25T02:57:51;99113.10;;;9.98;66.74
72096;BME280;59968;51.084;16.748;2023-03-25T03:00:28;99118.41;;;9.95;66.68
72096;BME280;59968;51.084;16.748;2023-03-25T03:03:00;99116.27;;;9.91;66.74
72096;BME280;59968;51.084;16.748;2023-03-25T03:08:29;99121.31;;;9.83;66.99
72096;BME280;59968;51.084;16.748;2023-03-25T03:21:55;99122.11;;;9.69;67.73
72096;BME280;59968;51.084;16.748;2023-03-25T03:24:35;99119.11;;;9.65;67.69
72096;BME280;59968;51.084;16.748;2023-03-25T03:29:49;99118.92;;;9.68;67.80
72096;BME280;59968;51.084;16.748;2023-03-25T03:32:26;99124.81;;;9.69;67.80
72096;BME280;59968;51.084;16.748;2023-03-25T03:35:09;99124.16;;;9.70;67.86
72096;BME280;59968;51.084;16.748;2023-03-25T03:37:44;99124.48;;;9.71;68.00
72096;BME280;59968;51.084;16.748;2023-03-25T03:40:19;99126.70;;;9.77;67.85
72096;BME280;59968;51.084;16.748;2023-03-25T03:42:56;99126.05;;;9.79;67.90
72096;BME280;59968;51.084;16.748;2023-03-25T03:45:38;99127.09;;;9.83;67.94
72096;BME280;59968;51.084;16.748;2023-03-25T03:48:17;99130.35;;;9.89;67.93
72096;BME280;59968;51.084;16.748;2023-03-25T03:50:52;99127.36;;;9.94;67.90
72096;BME280;59968;51.084;16.748;2023-03-25T03:53:28;99126.73;;;9.98;67.71
72096;BME280;59968;51.084;16.748;2023-03-25T03:56:22;99125.83;;;10.00;67.69
72096;BME280;59968;51.084;16.748;2023-03-25T03:58:53;99127.11;;;10.03;67.72
72096;BME280;59968;51.084;16.748;2023-03-25T04:01:39;99127.09;;;10.05;67.53
72096;BME280;59968;51.084;16.748;2023-03-25T04:04:18;99125.11;;;10.04;67.57
72096;BME280;59968;51.084;16.748;2023-03-25T04:06:59;99125.36;;;10.02;67.54
72096;BME280;59968;51.084;16.748;2023-03-25T04:09:35;99121.86;;;9.98;67.55
72096;BME280;59968;51.084;16.748;2023-03-25T04:12:17;99128.73;;;9.96;67.69
72096;BME280;59968;51.084;16.748;2023-03-25T04:14:48;99132.63;;;9.93;67.74
72096;BME280;59968;51.084;16.748;2023-03-25T04:17:16;99129.48;;;9.87;67.86
72096;BME280;59968;51.084;16.748;2023-03-25T04:19:45;99133.80;;;9.83;67.97
72096;BME280;59968;51.084;16.748;2023-03-25T04:22:16;99136.16;;;9.80;68.01
72096;BME280;59968;51.084;16.748;2023-03-25T04:24:46;99138.07;;;9.76;68.04
72096;BME280;59968;51.084;16.748;2023-03-25T04:27:18;99135.59;;;9.71;68.05
72096;BME280;59968;51.084;16.748;2023-03-25T04:29:48;99135.40;;;9.70;68.01
72096;BME280;59968;51.084;16.748;2023-03-25T04:32:19;99137.63;;;9.70;67.98
72096;BME280;59968;51.084;16.748;2023-03-25T04:34:47;99141.28;;;9.67;67.97
72096;BME280;59968;51.084;16.748;2023-03-25T04:37:16;99146.77;;;9.68;68.00
72096;BME280;59968;51.084;16.748;2023-03-25T04:39:44;99145.30;;;9.66;67.97
72096;BME280;59968;51.084;16.748;2023-03-25T04:42:13;99145.52;;;9.64;67.98
72096;BME280;59968;51.084;16.748;2023-03-25T04:44:45;99146.46;;;9.67;67.67
72096;BME280;59968;51.084;16.748;2023-03-25T04:47:15;99148.11;;;9.67;67.67
72096;BME280;59968;51.084;16.748;2023-03-25T04:49:47;99145.77;;;9.63;67.88
72096;BME280;59968;51.084;16.748;2023-03-25T04:52:15;99141.39;;;9.60;67.88
72096;BME280;59968;51.084;16.748;2023-03-25T04:54:44;99144.01;;;9.59;67.88
72096;BME280;59968;51.084;16.748;2023-03-25T04:57:13;99143.02;;;9.59;67.89
72096;BME280;59968;51.084;16.748;2023-03-25T04:59:42;99142.42;;;9.58;67.77
72096;BME280;59968;51.084;16.748;2023-03-25T05:02:12;99144.45;;;9.55;67.87
72096;BME280;59968;51.084;16.748;2023-03-25T05:04:41;99146.00;;;9.52;68.07
72096;BME280;59968;51.084;16.748;2023-03-25T05:07:10;99152.32;;;9.49;67.99
72096;BME280;59968;51.084;16.748;2023-03-25T05:09:40;99152.70;;;9.45;67.95
72096;BME280;59968;51.084;16.748;2023-03-25T05:12:08;99146.20;;;9.39;67.72
72096;BME280;59968;51.084;16.748;2023-03-25T05:14:38;99151.61;;;9.42;67.81
72096;BME280;59968;51.084;16.748;2023-03-25T05:17:07;99149.46;;;9.41;67.97
72096;BME280;59968;51.084;16.748;2023-03-25T05:19:35;99146.29;;;9.40;68.00
72096;BME280;59968;51.084;16.748;2023-03-25T05:22:04;99149.30;;;9.42;68.10
72096;BME280;59968;51.084;16.748;2023-03-25T05:24:33;99147.46;;;9.44;68.23
72096;BME280;59968;51.084;16.748;2023-03-25T05:27:01;99143.55;;;9.44;68.26
72096;BME280;59968;51.084;16.748;2023-03-25T05:29:30;99149.55;;;9.47;68.44
72096;BME280;59968;51.084;16.748;2023-03-25T05:32:01;99148.66;;;9.48;68.42
72096;BME280;59968;51.084;16.748;2023-03-25T05:34:30;99155.70;;;9.51;68.48
72096;BME280;59968;51.084;16.748;2023-03-25T05:36:59;99155.86;;;9.54;68.63
72096;BME280;59968;51.084;16.748;2023-03-25T05:39:28;99152.20;;;9.60;68.67
72096;BME280;59968;51.084;16.748;2023-03-25T05:41:56;99151.35;;;9.67;68.69
72096;BME280;59968;51.084;16.748;2023-03-25T05:44:30;99155.95;;;9.75;68.74
72096;BME280;59968;51.084;16.748;2023-03-25T05:47:00;99153.14;;;9.86;68.83
72096;BME280;59968;51.084;16.748;2023-03-25T05:49:29;99153.20;;;9.96;68.98
72096;BME280;59968;51.084;16.748;2023-03-25T05:52:00;99153.91;;;10.06;69.03
72096;BME280;59968;51.084;16.748;2023-03-25T05:54:30;99158.19;;;10.16;69.02
72096;BME280;59968;51.084;16.748;2023-03-25T05:56:59;99159.29;;;10.26;69.05
72096;BME280;59968;51.084;16.748;2023-03-25T05:59:28;99152.77;;;10.34;69.10
72096;BME280;59968;51.084;16.748;2023-03-25T06:01:57;99149.49;;;10.41;69.16
72096;BME280;59968;51.084;16.748;2023-03-25T06:04:26;99142.23;;;10.48;69.16
72096;BME280;59968;51.084;16.748;2023-03-25T06:06:55;99140.90;;;10.54;69.17
72096;BME280;59968;51.084;16.748;2023-03-25T06:09:23;99144.71;;;10.62;69.26
72096;BME280;59968;51.084;16.748;2023-03-25T06:11:52;99150.52;;;10.74;69.36
72096;BME280;59968;51.084;16.748;2023-03-25T06:14:20;99151.50;;;10.82;69.26
72096;BME280;59968;51.084;16.748;2023-03-25T06:16:52;99151.70;;;10.89;69.24
72096;BME280;59968;51.084;16.748;2023-03-25T06:19:23;99152.86;;;10.98;69.17
72096;BME280;59968;51.084;16.748;2023-03-25T06:21:53;99154.45;;;11.05;68.89
72096;BME280;59968;51.084;16.748;2023-03-25T06:24:23;99156.33;;;11.11;68.76
72096;BME280;59968;51.084;16.748;2023-03-25T06:26:51;99149.11;;;11.16;68.61
72096;BME280;59968;51.084;16.748;2023-03-25T06:29:20;99147.23;;;11.21;68.66
72096;BME280;59968;51.084;16.748;2023-03-25T06:31:49;99151.42;;;11.28;68.74
72096;BME280;59968;51.084;16.748;2023-03-25T06:34:18;99156.68;;;11.35;68.89
72096;BME280;59968;51.084;16.748;2023-03-25T06:36:50;99160.11;;;11.41;69.23
72096;BME280;59968;51.084;16.748;2023-03-25T06:39:21;99156.84;;;11.45;69.52
72096;BME280;59968;51.084;16.748;2023-03-25T06:41:50;99158.61;;;11.48;69.64
72096;BME280;59968;51.084;16.748;2023-03-25T06:44:24;99152.80;;;11.48;69.61
72096;BME280;59968;51.084;16.748;2023-03-25T06:47:11;99145.80;;;11.44;69.30
72096;BME280;59968;51.084;16.748;2023-03-25T06:49:44;99154.91;;;11.51;69.34
72096;BME280;59968;51.084;16.748;2023-03-25T06:52:13;99148.80;;;11.54;69.13
72096;BME280;59968;51.084;16.748;2023-03-25T06:54:42;99149.45;;;11.59;69.02
72096;BME280;59968;51.084;16.748;2023-03-25T06:57:11;99149.45;;;11.64;69.17
72096;BME280;59968;51.084;16.748;2023-03-25T06:59:40;99144.30;;;11.67;69.21
72096;BME280;59968;51.084;16.748;2023-03-25T07:02:11;99146.08;;;11.73;69.06
72096;BME280;59968;51.084;16.748;2023-03-25T07:04:41;99149.63;;;11.78;69.06
72096;BME280;59968;51.084;16.748;2023-03-25T07:07:12;99150.45;;;11.85;68.74
72096;BME280;59968;51.084;16.748;2023-03-25T07:09:41;99155.92;;;11.92;68.58
72096;BME280;59968;51.084;16.748;2023-03-25T07:12:10;99158.41;;;12.00;68.43
72096;BME280;59968;51.084;16.748;2023-03-25T07:14:39;99160.11;;;12.11;68.40
72096;BME280;59968;51.084;16.748;2023-03-25T07:17:08;99161.05;;;12.21;68.37
72096;BME280;59968;51.084;16.748;2023-03-25T07:19:37;99161.02;;;12.29;68.22
72096;BME280;59968;51.084;16.748;2023-03-25T07:22:05;99160.27;;;12.38;68.14
72096;BME280;59968;51.084;16.748;2023-03-25T07:24:34;99161.85;;;12.44;68.07
72096;BME280;59968;51.084;16.748;2023-03-25T07:27:03;99168.04;;;12.53;67.57
72096;BME280;59968;51.084;16.748;2023-03-25T07:29:32;99170.92;;;12.61;67.45
72096;BME280;59968;51.084;16.748;2023-03-25T07:32:01;99173.50;;;12.69;67.27
72096;BME280;59968;51.084;16.748;2023-03-25T07:34:30;99169.25;;;12.77;67.09
72096;BME280;59968;51.084;16.748;2023-03-25T07:36:59;99169.59;;;12.86;67.14
72096;BME280;59968;51.084;16.748;2023-03-25T07:39:28;99175.89;;;12.92;67.08
72096;BME280;59968;51.084;16.748;2023-03-25T07:41:56;99169.95;;;12.96;67.03
72096;BME280;59968;51.084;16.748;2023-03-25T07:44:36;99162.41;;;13.05;66.93
72096;BME280;59968;51.084;16.748;2023-03-25T07:47:05;99158.05;;;13.13;66.47
72096;BME280;59968;51.084;16.748;2023-03-25T07:49:33;99151.15;;;13.23;66.12
72096;BME280;59968;51.084;16.748;2023-03-25T07:52:02;99147.29;;;13.35;65.62
72096;BME280;59968;51.084;16.748;2023-03-25T07:54:31;99150.61;;;13.59;65.67
72096;BME280;59968;51.084;16.748;2023-03-25T07:56:59;99152.27;;;13.84;65.65
72096;BME280;59968;51.084;16.748;2023-03-25T07:59:27;99150.51;;;14.16;64.81
72096;BME280;59968;51.084;16.748;2023-03-25T08:01:56;99146.28;;;14.41;63.79
72096;BME280;59968;51.084;16.748;2023-03-25T08:04:26;99146.45;;;14.58;62.55
72096;BME280;59968;51.084;16.748;2023-03-25T08:06:55;99147.00;;;14.69;61.79
72096;BME280;59968;51.084;16.748;2023-03-25T08:09:23;99147.95;;;14.75;59.98
72096;BME280;59968;51.084;16.748;2023-03-25T08:11:52;99150.02;;;14.77;58.78
72096;BME280;59968;51.084;16.748;2023-03-25T08:14:21;99151.61;;;14.79;58.86
72096;BME280;59968;51.084;16.748;2023-03-25T08:16:49;99155.23;;;14.81;58.42
72096;BME280;59968;51.084;16.748;2023-03-25T08:19:18;99152.95;;;14.81;58.87
72096;BME280;59968;51.084;16.748;2023-03-25T08:21:46;99154.29;;;14.85;58.73
72096;BME280;59968;51.084;16.748;2023-03-25T08:24:15;99158.40;;;14.88;58.26
72096;BME280;59968;51.084;16.748;2023-03-25T08:26:44;99161.02;;;14.87;58.04
72096;BME280;59968;51.084;16.748;2023-03-25T08:29:13;99159.75;;;14.89;57.27
72096;BME280;59968;51.084;16.748;2023-03-25T08:31:45;99157.10;;;14.89;56.88
72096;BME280;59968;51.084;16.748;2023-03-25T08:34:14;99155.89;;;14.92;56.51
72096;BME280;59968;51.084;16.748;2023-03-25T08:36:42;99161.95;;;14.94;55.87
72096;BME280;59968;51.084;16.748;2023-03-25T08:39:11;99163.08;;;14.91;55.80
72096;BME280;59968;51.084;16.748;2023-03-25T08:41:44;99163.34;;;14.86;55.56
72096;BME280;59968;51.084;16.748;2023-03-25T08:44:13;99164.91;;;14.83;55.97
72096;BME280;59968;51.084;16.748;2023-03-25T08:46:42;99166.59;;;14.79;55.69
72096;BME280;59968;51.084;16.748;2023-03-25T08:49:11;99161.66;;;14.73;56.26
72096;BME280;59968;51.084;16.748;2023-03-25T08:51:40;99162.80;;;14.67;56.16
72096;BME280;59968;51.084;16.748;2023-03-25T08:54:08;99158.53;;;14.64;56.04
72096;BME280;59968;51.084;16.748;2023-03-25T08:56:37;99159.91;;;14.65;55.58
72096;BME280;59968;51.084;16.748;2023-03-25T08:59:06;99156.91;;;14.68;55.49
72096;BME280;59968;51.084;16.748;2023-03-25T09:01:35;99159.27;;;14.70;55.43
72096;BME280;59968;51.084;16.748;2023-03-25T09:04:05;99157.27;;;14.75;54.92
72096;BME280;59968;51.084;16.748;2023-03-25T09:06:33;99154.77;;;14.80;54.96
72096;BME280;59968;51.084;16.748;2023-03-25T09:09:23;99151.06;;;14.86;55.37
72096;BME280;59968;51.084;16.748;2023-03-25T09:11:51;99151.46;;;14.95;55.05
72096;BME280;59968;51.084;16.748;2023-03-25T09:14:20;99149.91;;;15.05;55.06
72096;BME280;59968;51.084;16.748;2023-03-25T09:16:49;99151.30;;;15.13;54.30
72096;BME280;59968;51.084;16.748;2023-03-25T09:19:18;99141.87;;;15.21;53.67
72096;BME280;59968;51.084;16.748;2023-03-25T09:21:47;99138.98;;;15.25;53.71
72096;BME280;59968;51.084;16.748;2023-03-25T09:24:17;99144.09;;;15.35;53.46
72096;BME280;59968;51.084;16.748;2023-03-25T09:26:46;99150.52;;;15.44;52.94
72096;BME280;59968;51.084;16.748;2023-03-25T09:29:16;99152.15;;;15.49;51.40
72096;BME280;59968;51.084;16.748;2023-03-25T09:31:44;99148.47;;;15.53;51.03
72096;BME280;59968;51.084;16.748;2023-03-25T09:34:13;99149.85;;;15.55;50.52
72096;BME280;59968;51.084;16.748;2023-03-25T09:36:43;99155.02;;;15.52;51.39
72096;BME280;59968;51.084;16.748;2023-03-25T09:39:13;99155.04;;;15.58;51.60
72096;BME280;59968;51.084;16.748;2023-03-25T09:44:38;99152.92;;;15.73;50.06
72096;BME280;59968;51.084;16.748;2023-03-25T09:47:14;99160.21;;;15.75;50.22
72096;BME280;59968;51.084;16.748;2023-03-25T09:49:46;99158.02;;;15.76;51.05
72096;BME280;59968;51.084;16.748;2023-03-25T09:52:53;99159.73;;;15.75;50.31
72096;BME280;59968;51.084;16.748;2023-03-25T09:55:26;99160.17;;;15.77;50.34
72096;BME280;59968;51.084;16.748;2023-03-25T10:06:41;99166.60;;;15.84;50.31
72096;BME280;59968;51.084;16.748;2023-03-25T10:10:08;99161.36;;;15.90;49.74
72096;BME280;59968;51.084;16.748;2023-03-25T10:20:56;99148.08;;;15.75;48.29
72096;BME280;59968;51.084;16.748;2023-03-25T10:26:18;99142.66;;;15.63;49.53
72096;BME280;59968;51.084;16.748;2023-03-25T10:28:59;99143.23;;;15.52;47.86
72096;BME280;59968;51.084;16.748;2023-03-25T10:31:35;99145.15;;;15.35;48.54
72096;BME280;59968;51.084;16.748;2023-03-25T10:34:13;99137.00;;;15.24;49.23
72096;BME280;59968;51.084;16.748;2023-03-25T10:36:53;99139.08;;;15.19;48.63
72096;BME280;59968;51.084;16.748;2023-03-25T10:39:30;99135.86;;;15.15;49.02
72096;BME280;59968;51.084;16.748;2023-03-25T10:42:29;99134.41;;;15.16;49.40
72096;BME280;59968;51.084;16.748;2023-03-25T10:44:59;99132.09;;;15.30;50.28
72096;BME280;59968;51.084;16.748;2023-03-25T10:47:34;99130.19;;;15.43;49.73
72096;BME280;59968;51.084;16.748;2023-03-25T10:50:05;99126.67;;;15.53;50.03
72096;BME280;59968;51.084;16.748;2023-03-25T10:52:35;99121.86;;;15.65;49.12
72096;BME280;59968;51.084;16.748;2023-03-25T10:55:22;99115.20;;;15.77;48.92
72096;BME280;59968;51.084;16.748;2023-03-25T10:57:53;99116.63;;;15.85;48.82
72096;BME280;59968;51.084;16.748;2023-03-25T11:00:23;99116.13;;;15.91;48.33
72096;BME280;59968;51.084;16.748;2023-03-25T11:02:55;99114.91;;;15.87;48.46
72096;BME280;59968;51.084;16.748;2023-03-25T11:05:27;99114.79;;;15.85;48.71
72096;BME280;59968;51.084;16.748;2023-03-25T11:08:01;99113.58;;;15.87;48.83
72096;BME280;59968;51.084;16.748;2023-03-25T11:10:52;99112.73;;;15.90;48.59
72096;BME280;59968;51.084;16.748;2023-03-25T11:13:27;99112.02;;;15.87;48.07
72096;BME280;59968;51.084;16.748;2023-03-25T11:15:58;99111.88;;;15.72;45.59
72096;BME280;59968;51.084;16.748;2023-03-25T11:18:33;99105.31;;;15.61;45.38
72096;BME280;59968;51.084;16.748;2023-03-25T11:21:08;99102.59;;;15.62;45.45
72096;BME280;59968;51.084;16.748;2023-03-25T11:23:50;99097.85;;;15.64;46.53
72096;BME280;59968;51.084;16.748;2023-03-25T11:26:35;99096.77;;;15.65;45.73
72096;BME280;59968;51.084;16.748;2023-03-25T11:29:16;99094.42;;;15.65;46.79
72096;BME280;59968;51.084;16.748;2023-03-25T11:31:57;99095.69;;;15.75;47.52
72096;BME280;59968;51.084;16.748;2023-03-25T11:34:33;99085.80;;;15.73;46.37
72096;BME280;59968;51.084;16.748;2023-03-25T11:39:51;99102.46;;;15.78;47.49
72096;BME280;59968;51.084;16.748;2023-03-25T11:42:30;99102.66;;;15.78;48.17
72096;BME280;59968;51.084;16.748;2023-03-25T11:45:01;99108.45;;;15.75;48.29
72096;BME280;59968;51.084;16.748;2023-03-25T11:47:34;99112.44;;;15.64;48.38
72096;BME280;59968;51.084;16.748;2023-03-25T11:50:06;99111.48;;;15.50;48.07
72096;BME280;59968;51.084;16.748;2023-03-25T11:52:42;99118.27;;;15.34;47.92
72096;BME280;59968;51.084;16.748;2023-03-25T11:55:29;99122.99;;;15.20;50.00
72096;BME280;59968;51.084;16.748;2023-03-25T11:57:59;99140.23;;;14.99;51.49
72096;BME280;59968;51.084;16.748;2023-03-25T12:00:36;99144.89;;;14.76;52.62
72096;BME280;59968;51.084;16.748;2023-03-25T12:05:42;99152.02;;;14.29;53.49
72096;BME280;59968;51.084;16.748;2023-03-25T12:08:16;99150.58;;;14.10;53.80
72096;BME280;59968;51.084;16.748;2023-03-25T12:10:51;99156.71;;;13.92;54.35
72096;BME280;59968;51.084;16.748;2023-03-25T12:16:33;99179.41;;;13.58;57.05
72096;BME280;59968;51.084;16.748;2023-03-25T12:28:05;99194.98;;;12.70;61.53
72096;BME280;59968;51.084;16.748;2023-03-25T12:30:45;99190.02;;;12.69;61.99
72096;BME280;59968;51.084;16.748;2023-03-25T12:33:33;99185.47;;;12.73;62.59
72096;BME280;59968;51.084;16.748;2023-03-25T12:45:14;99183.77;;;12.90;62.52
72096;BME280;59968;51.084;16.748;2023-03-25T12:50:41;99176.87;;;12.96;61.78
72096;BME280;59968;51.084;16.748;2023-03-25T13:07:44;99160.05;;;13.05;59.38
72096;BME280;59968;51.084;16.748;2023-03-25T13:10:20;99162.23;;;13.09;58.17
72096;BME280;59968;51.084;16.748;2023-03-25T13:12:56;99158.73;;;13.11;58.66
72096;BME280;59968;51.084;16.748;2023-03-25T13:15:36;99158.25;;;13.18;58.95
72096;BME280;59968;51.084;16.748;2023-03-25T13:18:27;99153.26;;;13.29;58.86
72096;BME280;59968;51.084;16.748;2023-03-25T13:23:57;99146.08;;;13.40;58.42
72096;BME280;59968;51.084;16.748;2023-03-25T13:26:29;99141.76;;;13.37;58.25
72096;BME280;59968;51.084;16.748;2023-03-25T13:29:02;99142.95;;;13.33;58.84
72096;BME280;59968;51.084;16.748;2023-03-25T13:31:39;99140.11;;;13.31;59.18
72096;BME280;59968;51.084;16.748;2023-03-25T13:34:39;99140.74;;;13.33;59.34
72096;BME280;59968;51.084;16.748;2023-03-25T13:45:37;99128.27;;;13.52;58.13
72096;BME280;59968;51.084;16.748;2023-03-25T13:48:18;99127.52;;;13.54;57.40
72096;BME280;59968;51.084;16.748;2023-03-25T13:50:51;99129.88;;;13.61;56.71
72096;BME280;59968;51.084;16.748;2023-03-25T14:10:07;99107.88;;;14.29;54.21
72096;BME280;59968;51.084;16.748;2023-03-25T14:12:45;99099.90;;;14.36;54.13
72096;BME280;59968;51.084;16.748;2023-03-25T14:15:22;99098.61;;;14.42;53.36
72096;BME280;59968;51.084;16.748;2023-03-25T14:17:51;99102.02;;;14.48;53.59
72096;BME280;59968;51.084;16.748;2023-03-25T14:20:42;99109.48;;;14.52;53.13
72096;BME280;59968;51.084;16.748;2023-03-25T14:23:18;99115.27;;;14.55;53.78
72096;BME280;59968;51.084;16.748;2023-03-25T14:25:56;99090.48;;;14.47;53.69
72096;BME280;59968;51.084;16.748;2023-03-25T14:31:27;99104.95;;;14.56;53.18
72096;BME280;59968;51.084;16.748;2023-03-25T14:39:10;99110.78;;;14.25;53.18
72096;BME280;59968;51.084;16.748;2023-03-25T14:41:59;99117.54;;;14.20;53.63
72096;BME280;59968;51.084;16.748;2023-03-25T14:44:32;99133.05;;;14.13;53.60
72096;BME280;59968;51.084;16.748;2023-03-25T14:53:00;99162.85;;;12.95;55.06
72096;BME280;59968;51.084;16.748;2023-03-25T14:55:39;99164.70;;;12.60;57.15
72096;BME280;59968;51.084;16.748;2023-03-25T14:58:24;99154.42;;;12.32;58.21
72096;BME280;59968;51.084;16.748;2023-03-25T15:01:01;99166.74;;;12.08;59.78
72096;BME280;59968;51.084;16.748;2023-03-25T15:04:06;99175.73;;;11.95;60.40
72096;BME280;59968;51.084;16.748;2023-03-25T15:06:35;99171.19;;;11.87;60.76
72096;BME280;59968;51.084;16.748;2023-03-25T15:09:08;99172.25;;;11.88;61.33
72096;BME280;59968;51.084;16.748;2023-03-25T15:11:43;99164.05;;;11.89;
72096;BME280;59968;51.084;16.748;2023-03-25T15:14:23;99161.41;;;11.89;61.97
72096;BME280;59968;51.084;16.748;2023-03-25T15:17:00;99156.43;;;11.87;62.18
72096;BME280;59968;51.084;16.748;2023-03-25T15:22:35;99145.73;;;11.86;63.60
72096;BME280;59968;51.084;16.748;2023-03-25T15:25:13;99135.41;;;11.86;64.58
72096;BME280;59968;51.084;16.748;2023-03-25T15:27:58;99133.30;;;11.89;65.30
72096;BME280;59968;51.084;16.748;2023-03-25T15:30:56;99123.46;;;11.89;65.11
72096;BME280;59968;51.084;16.748;2023-03-25T15:36:35;99123.38;;;11.82;65.15
72096;BME280;59968;51.084;16.748;2023-03-25T15:51:18;99102.81;;;11.66;66.32
72096;BME280;59968;51.084;16.748;2023-03-25T15:56:47;99093.48;;;11.63;65.77
72096;BME280;59968;51.084;16.748;2023-03-25T15:59:31;99095.88;;;11.60;65.88
72096;BME280;59968;51.084;16.748;2023-03-25T16:02:35;99099.90;;;11.57;65.83
72096;BME280;59968;51.084;16.748;2023-03-25T16:05:08;99096.16;;;11.48;65.80
72096;BME280;59968;51.084;16.748;2023-03-25T16:07:42;99095.38;;;11.42;65.90
72096;BME280;59968;51.084;16.748;2023-03-25T16:12:48;99109.52;;;11.27;65.89
72096;BME280;59968;51.084;16.748;2023-03-25T16:15:25;99106.32;;;11.18;66.19
72096;BME280;59968;51.084;16.748;2023-03-25T16:17:57;99104.87;;;11.08;66.64